Time;durP1;ratioP1;P1;durP2;ratioP2;P2;SDS_P1;SDS_P2;PMS_P1;PMS_P2;Temp;Humidity;BMP_temperature;BMP_pressure;BME280_temperature;BME280_humidity;BME280_pressure;Samples;Min_cycle;Max_cycle;Signal;HPM_P1;HPM_P2
2021/05/25 00:01:52;;;;;;;1.90;1.00;;;19.40;85.30;;;;;;5107843;27;20185;-71
2021/05/25 00:04:18;;;;;;;2.33;1.07;;;19.30;84.80;;;;;;5105558;27;20268;-73
2021/05/25 00:06:45;;;;;;;3.03;1.20;;;19.10;84.50;;;;;;5106139;27;20200;-72
2021/05/25 00:09:13;;;;;;;7.13;1.20;;;19.00;84.70;;;;;;5088963;27;20181;-73
2021/05/25 00:11:40;;;;;;;2.10;1.07;;;19.00;83.70;;;;;;5120223;27;20273;-70
2021/05/25 00:14:21;;;;;;;5.17;1.30;;;19.00;84.70;;;;;;5095601;27;20948;-72
2021/05/25 00:16:52;;;;;;;7.43;1.47;;;18.90;83.20;;;;;;5088399;27;20192;-72
2021/05/25 00:19:20;;;;;;;3.43;1.07;;;18.90;83.20;;;;;;5116606;27;20747;-72
2021/05/25 00:21:47;;;;;;;1.20;1.00;;;18.80;83.40;;;;;;5123880;27;20180;-73
2021/05/25 00:24:14;;;;;;;1.53;1.10;;;18.80;83.60;;;;;;5095638;27;20185;-72
2021/05/25 00:26:40;;;;;;;2.93;0.93;;;18.70;83.50;;;;;;5105626;27;20199;-73
2021/05/25 00:29:07;;;;;;;1.73;1.20;;;18.70;84.60;;;;;;5112015;27;20181;-72
2021/05/25 00:31:35;;;;;;;5.67;1.30;;;18.70;84.00;;;;;;5120336;27;20663;-73
2021/05/25 00:34:01;;;;;;;3.53;1.20;;;18.60;83.50;;;;;;5108510;27;20665;-74
2021/05/25 00:36:28;;;;;;;2.37;1.20;;;18.50;83.00;;;;;;5112403;27;20201;-72
2021/05/25 00:38:55;;;;;;;2.00;1.10;;;18.40;83.00;;;;;;5088274;27;20185;-71
2021/05/25 00:41:22;;;;;;;2.33;1.30;;;18.50;83.50;;;;;;5123313;27;20291;-72
2021/05/25 00:43:49;;;;;;;4.30;1.10;;;18.50;82.90;;;;;;5123007;27;20192;-74
2021/05/25 00:46:17;;;;;;;2.60;1.30;;;18.50;83.70;;;;;;5103932;27;20219;-74
2021/05/25 00:48:43;;;;;;;3.60;1.30;;;18.40;83.10;;;;;;5106805;27;20359;-74
2021/05/25 00:51:14;;;;;;;1.63;1.00;;;18.30;83.90;;;;;;5109307;27;20262;-74
2021/05/25 00:53:42;;;;;;;2.30;1.30;;;18.30;83.80;;;;;;5114167;27;20225;-74
2021/05/25 00:56:10;;;;;;;4.13;1.10;;;18.20;84.30;;;;;;5126896;27;20192;-74
2021/05/25 00:58:47;;;;;;;5.37;1.00;;;18.20;84.80;;;;;;5129878;27;20185;-73
2021/05/25 01:01:20;;;;;;;4.00;1.20;;;18.10;84.80;;;;;;5128276;27;20728;-73
2021/05/25 01:03:54;;;;;;;6.37;1.50;;;18.30;84.10;;;;;;5124109;27;20278;-73
2021/05/25 01:06:21;;;;;;;4.63;1.30;;;18.30;84.10;;;;;;5124796;27;20211;-71
2021/05/25 01:08:50;;;;;;;8.07;1.37;;;18.40;84.80;;;;;;5105820;27;20265;-73
2021/05/25 01:11:18;;;;;;;5.00;1.13;;;18.20;84.90;;;;;;5082090;27;20189;-73
2021/05/25 01:13:47;;;;;;;2.90;1.20;;;18.20;85.60;;;;;;5121609;27;20199;-73
2021/05/25 01:16:16;;;;;;;2.13;1.10;;;18.10;86.20;;;;;;5103425;27;20201;-73
2021/05/25 01:18:49;;;;;;;1.27;1.13;;;18.00;86.50;;;;;;5085898;27;20978;-73
2021/05/25 01:21:16;;;;;;;2.87;1.30;;;17.90;87.40;;;;;;5115719;27;20259;-73
2021/05/25 01:23:46;;;;;;;4.07;1.20;;;17.80;88.00;;;;;;5090368;27;20196;-73
2021/05/25 01:26:15;;;;;;;1.97;1.10;;;17.90;88.50;;;;;;5089608;27;20205;-73
2021/05/25 01:28:44;;;;;;;2.70;1.20;;;17.90;88.50;;;;;;5101000;27;20276;-73
2021/05/25 01:31:11;;;;;;;2.80;1.13;;;17.90;88.70;;;;;;5121431;27;20273;-73
2021/05/25 01:33:37;;;;;;;3.50;1.30;;;17.90;88.90;;;;;;5085631;27;20186;-73
2021/05/25 01:36:08;;;;;;;9.03;1.13;;;17.90;89.30;;;;;;5124651;27;20252;-74
2021/05/25 01:38:36;;;;;;;4.27;1.27;;;17.90;89.80;;;;;;5090136;27;20249;-74
2021/05/25 01:41:09;;;;;;;3.67;1.40;;;17.90;90.10;;;;;;5104134;27;20212;-74
2021/05/25 01:43:40;;;;;;;4.50;1.50;;;17.80;90.30;;;;;;5089477;27;20360;-71
2021/05/25 01:46:07;;;;;;;3.80;1.23;;;17.80;90.00;;;;;;5122093;27;20184;-73
2021/05/25 01:48:33;;;;;;;2.93;1.10;;;17.80;89.30;;;;;;5112805;27;20216;-73
2021/05/25 01:51:00;;;;;;;3.80;1.20;;;17.80;88.80;;;;;;5102227;27;20185;-73
2021/05/25 01:53:30;;;;;;;3.07;1.07;;;17.90;88.70;;;;;;5120132;27;20606;-74
2021/05/25 01:55:59;;;;;;;2.23;0.90;;;17.90;86.60;;;;;;5116979;27;20233;-73
2021/05/25 01:58:33;;;;;;;2.67;1.23;;;18.00;86.70;;;;;;5107476;27;20190;-73
2021/05/25 02:01:08;;;;;;;2.50;1.00;;;18.10;86.00;;;;;;5120337;27;20297;-73
2021/05/25 02:03:36;;;;;;;3.83;1.10;;;18.20;85.90;;;;;;5118163;27;20181;-71
2021/05/25 02:06:08;;;;;;;3.63;1.50;;;18.20;85.50;;;;;;5120242;27;20200;-74
2021/05/25 02:08:34;;;;;;;1.70;1.23;;;18.10;84.90;;;;;;5124645;27;20185;-74
2021/05/25 02:11:03;;;;;;;2.83;1.33;;;18.00;85.90;;;;;;5105453;27;20203;-73
2021/05/25 02:13:37;;;;;;;5.40;1.10;;;17.90;85.00;;;;;;5101423;27;20196;-73
2021/05/25 02:16:13;;;;;;;2.63;1.40;;;17.90;85.60;;;;;;5124469;27;20897;-74
2021/05/25 02:18:45;;;;;;;1.17;0.90;;;17.70;86.50;;;;;;5121482;27;20189;-73
2021/05/25 02:21:17;;;;;;;2.37;1.30;;;17.70;87.00;;;;;;5105132;27;20887;-73
2021/05/25 02:23:45;;;;;;;3.63;1.33;;;17.70;87.60;;;;;;5112218;27;20271;-73
2021/05/25 02:26:12;;;;;;;6.40;1.40;;;17.70;86.70;;;;;;5108630;27;20181;-74
2021/05/25 02:28:39;;;;;;;2.23;1.10;;;17.70;87.10;;;;;;5083534;27;21204;-73
2021/05/25 02:31:06;;;;;;;5.33;1.37;;;17.80;86.70;;;;;;5099170;27;20189;-73
2021/05/25 02:33:33;;;;;;;5.63;1.40;;;17.80;86.70;;;;;;5097992;27;20284;-74
2021/05/25 02:36:01;;;;;;;2.00;1.00;;;17.90;86.60;;;;;;5119033;27;20177;-73
2021/05/25 02:38:30;;;;;;;1.80;1.10;;;17.90;86.50;;;;;;5116607;27;20272;-71
2021/05/25 02:40:57;;;;;;;4.27;1.33;;;18.00;86.00;;;;;;5104856;27;20587;-74
2021/05/25 02:43:27;;;;;;;3.60;1.43;;;18.10;86.20;;;;;;5105139;28;20185;-73
2021/05/25 02:45:54;;;;;;;3.40;1.17;;;18.10;85.80;;;;;;5088905;28;20184;-73
2021/05/25 02:48:22;;;;;;;3.03;1.33;;;18.10;86.70;;;;;;5087963;28;20189;-73
2021/05/25 02:50:49;;;;;;;2.70;1.37;;;18.00;86.90;;;;;;5107890;27;20184;-73
2021/05/25 02:53:16;;;;;;;1.60;1.00;;;17.90;87.50;;;;;;5105234;27;20230;-73
2021/05/25 02:55:43;;;;;;;8.03;1.20;;;17.90;86.90;;;;;;5106305;27;20237;-74
2021/05/25 02:58:10;;;;;;;1.97;1.00;;;17.90;87.10;;;;;;5127452;27;20188;-73
2021/05/25 03:00:44;;;;;;;3.50;1.20;;;17.80;86.70;;;;;;5099256;27;20287;-74
2021/05/25 03:03:12;;;;;;;3.03;1.30;;;17.90;87.90;;;;;;5124886;27;20318;-74
2021/05/25 03:05:40;;;;;;;5.67;1.27;;;17.90;88.20;;;;;;5090181;27;20177;-73
2021/05/25 03:08:10;;;;;;;4.80;1.23;;;18.00;88.10;;;;;;5110784;27;20660;-71
2021/05/25 03:10:41;;;;;;;2.63;1.13;;;18.10;88.80;;;;;;5108200;27;20216;-74
2021/05/25 03:13:08;;;;;;;3.83;1.00;;;18.10;88.70;;;;;;5126469;27;20220;-74
2021/05/25 03:15:39;;;;;;;2.40;1.30;;;18.20;89.20;;;;;;5119827;27;20276;-74
2021/05/25 03:18:08;;;;;;;4.13;1.20;;;18.20;89.80;;;;;;5125939;27;20197;-71
2021/05/25 03:20:36;;;;;;;2.27;1.30;;;18.20;89.80;;;;;;5107912;27;20680;-74
2021/05/25 03:23:05;;;;;;;1.63;1.10;;;18.20;90.40;;;;;;5121894;27;20689;-74
2021/05/25 03:25:32;;;;;;;4.57;1.40;;;18.10;90.50;;;;;;5091865;27;20276;-73
2021/05/25 03:27:58;;;;;;;2.70;1.20;;;18.20;90.30;;;;;;5112234;27;20193;-74
2021/05/25 03:30:28;;;;;;;2.13;1.10;;;18.30;90.60;;;;;;5110413;27;20189;-74
2021/05/25 03:32:56;;;;;;;2.83;1.30;;;18.40;90.80;;;;;;5123900;27;20250;-73
2021/05/25 03:35:24;;;;;;;4.00;1.27;;;18.50;90.70;;;;;;5119440;27;20231;-74
2021/05/25 03:37:51;;;;;;;3.27;1.47;;;18.60;90.80;;;;;;5105773;27;20189;-74
2021/05/25 03:40:19;;;;;;;4.83;1.20;;;18.70;90.50;;;;;;5121784;27;20220;-72
2021/05/25 03:42:53;;;;;;;6.23;1.47;;;18.80;90.40;;;;;;5124193;27;20823;-73
2021/05/25 03:45:22;;;;;;;2.70;1.17;;;18.90;90.40;;;;;;5127395;27;20688;-71
2021/05/25 03:47:49;;;;;;;2.33;1.20;;;19.00;90.70;;;;;;5106249;27;20200;-71
2021/05/25 03:50:17;;;;;;;5.10;1.47;;;19.00;90.90;;;;;;5123446;27;20319;-71
2021/05/25 03:52:50;;;;;;;4.47;1.30;;;19.00;91.30;;;;;;5089695;27;20196;-72
2021/05/25 04:00:44;;;;;;;2.93;1.23;;;19.00;91.60;;;;;;5114221;27;20216;-70
2021/05/25 04:03:10;;;;;;;2.60;1.27;;;19.00;93.00;;;;;;5104291;27;20257;-70
2021/05/25 04:05:37;;;;;;;2.10;1.37;;;19.00;92.90;;;;;;5107815;27;20672;-73
2021/05/25 04:08:05;;;;;;;2.43;1.23;;;19.00;93.30;;;;;;5089284;27;20184;-73
2021/05/25 04:10:31;;;;;;;4.33;1.10;;;19.00;93.40;;;;;;5104010;27;20188;-72
2021/05/25 04:12:58;;;;;;;9.47;1.63;;;19.00;93.80;;;;;;5110251;27;20204;-70
2021/05/25 04:15:24;;;;;;;7.53;1.87;;;19.00;93.90;;;;;;5102293;27;20229;-72
2021/05/25 04:17:53;;;;;;;6.10;1.50;;;19.10;93.90;;;;;;5105172;27;20604;-70
2021/05/25 04:20:21;;;;;;;3.47;1.10;;;19.20;94.30;;;;;;5088725;27;20343;-70
2021/05/25 04:22:49;;;;;;;3.03;1.13;;;19.30;93.60;;;;;;5089706;27;20677;-70
2021/05/25 04:25:16;;;;;;;3.80;1.40;;;19.50;93.40;;;;;;5122291;27;20181;-70
2021/05/25 04:27:43;;;;;;;7.73;1.50;;;19.60;93.30;;;;;;5092092;27;20193;-70
2021/05/25 04:30:11;;;;;;;6.13;1.40;;;19.70;92.90;;;;;;5107759;27;20194;-70
2021/05/25 04:32:38;;;;;;;4.97;1.23;;;20.10;93.30;;;;;;5110284;27;20199;-70
2021/05/25 04:35:08;;;;;;;6.87;1.33;;;20.40;93.30;;;;;;5123865;27;20185;-71
2021/05/25 04:37:35;;;;;;;3.13;1.57;;;20.40;93.00;;;;;;5087857;27;20177;-70
2021/05/25 04:40:01;;;;;;;5.57;1.37;;;20.40;93.10;;;;;;5105664;27;20240;-70
2021/05/25 04:42:28;;;;;;;5.97;1.60;;;20.50;95.10;;;;;;5111808;27;20196;-70
2021/05/25 04:44:54;;;;;;;3.90;1.33;;;20.60;94.70;;;;;;5119651;27;20264;-70
2021/05/25 04:47:21;;;;;;;4.30;1.60;;;20.60;94.70;;;;;;5120473;27;20198;-71
2021/05/25 04:49:47;;;;;;;2.87;1.50;;;20.70;95.20;;;;;;5107973;27;20649;-71
2021/05/25 04:52:13;;;;;;;2.30;1.60;;;20.70;95.40;;;;;;5122020;27;20184;-71
2021/05/25 04:54:40;;;;;;;4.93;1.83;;;20.70;95.20;;;;;;5102564;27;20227;-71
2021/05/25 04:57:06;;;;;;;3.80;1.60;;;20.80;95.10;;;;;;5106853;27;20190;-70
2021/05/25 04:59:33;;;;;;;1.90;1.50;;;21.00;95.40;;;;;;5103006;27;20204;-70
2021/05/25 05:01:59;;;;;;;2.93;1.33;;;20.90;95.30;;;;;;5097306;27;20212;-71
2021/05/25 05:04:25;;;;;;;2.23;1.40;;;20.90;95.20;;;;;;5092899;27;20270;-71
2021/05/25 05:06:51;;;;;;;6.97;1.30;;;21.00;94.40;;;;;;5106886;27;20668;-71
2021/05/25 05:09:18;;;;;;;4.10;1.63;;;21.10;93.20;;;;;;5087097;27;20264;-71
2021/05/25 05:11:45;;;;;;;10.40;2.07;;;21.30;92.80;;;;;;5081627;27;20193;-71
2021/05/25 05:14:11;;;;;;;8.57;2.20;;;21.40;93.40;;;;;;5125374;27;20225;-71
2021/05/25 05:16:38;;;;;;;16.90;2.10;;;21.40;93.70;;;;;;5103610;27;20293;-70
2021/05/25 05:19:05;;;;;;;9.80;1.80;;;21.40;93.00;;;;;;5104909;27;20819;-71
2021/05/25 05:21:31;;;;;;;14.93;1.93;;;21.40;93.50;;;;;;5101645;27;20569;-71
2021/05/25 05:23:57;;;;;;;8.00;1.97;;;21.40;93.40;;;;;;5120664;27;20185;-71
2021/05/25 05:26:24;;;;;;;9.57;1.40;;;21.40;93.20;;;;;;5119862;27;20593;-71
2021/05/25 05:28:50;;;;;;;3.67;1.30;;;21.60;93.50;;;;;;5086693;27;20188;-71
2021/05/25 05:31:17;;;;;;;3.80;1.30;;;21.70;94.10;;;;;;5118367;27;20192;-70
2021/05/25 05:33:43;;;;;;;5.73;1.83;;;21.70;93.30;;;;;;5122360;27;20193;-71
2021/05/25 05:36:10;;;;;;;2.50;1.30;;;21.70;92.90;;;;;;5099878;27;20188;-71
2021/05/25 05:38:37;;;;;;;4.83;1.30;;;21.80;91.80;;;;;;5109550;27;20245;-71
2021/05/25 05:41:05;;;;;;;5.83;1.47;;;21.90;92.90;;;;;;5101673;27;20205;-71
2021/05/25 05:43:32;;;;;;;2.83;1.40;;;21.90;93.60;;;;;;5102699;27;20190;-71
2021/05/25 05:45:59;;;;;;;4.20;1.40;;;22.00;91.40;;;;;;5105408;27;20184;-71
2021/05/25 05:48:30;;;;;;;1.50;1.30;;;22.20;91.80;;;;;;5094221;27;20196;-71
2021/05/25 05:50:57;;;;;;;3.10;1.33;;;22.30;93.00;;;;;;5112447;27;20613;-71
2021/05/25 05:53:23;;;;;;;6.83;1.47;;;22.20;92.50;;;;;;5109043;27;20299;-71
2021/05/25 05:55:50;;;;;;;3.20;1.50;;;22.30;91.50;;;;;;5107127;27;20189;-71
2021/05/25 05:58:16;;;;;;;7.00;1.43;;;22.60;92.50;;;;;;5118713;27;20197;-71
2021/05/25 06:00:44;;;;;;;5.03;1.37;;;22.70;90.20;;;;;;5089109;27;20696;-71
2021/05/25 06:03:12;;;;;;;6.13;1.40;;;23.10;90.00;;;;;;5119259;27;20226;-71
2021/05/25 06:05:39;;;;;;;4.83;1.47;;;22.90;91.00;;;;;;5083064;28;20185;-71
2021/05/25 06:08:09;;;;;;;4.30;1.43;;;22.90;91.00;;;;;;5104365;28;20185;-71
2021/05/25 06:10:40;;;;;;;4.63;1.50;;;23.20;90.20;;;;;;5106279;27;20184;-71
2021/05/25 06:14:03;;;;;;;4.97;1.50;;;23.20;90.70;;;;;;5105055;27;20185;-70
2021/05/25 06:16:31;;;;;;;5.70;1.60;;;23.50;90.20;;;;;;5098725;27;20219;-71
2021/05/25 06:18:58;;;;;;;13.15;1.45;;;23.60;89.60;;;;;;5104283;27;20188;-70
2021/05/25 06:21:25;;;;;;;5.37;1.47;;;24.00;87.90;;;;;;5104693;27;20236;-70
2021/05/25 06:23:52;;;;;;;6.40;1.80;;;24.10;86.70;;;;;;5126320;27;20185;-72
2021/05/25 06:26:21;;;;;;;6.55;1.80;;;24.50;88.60;;;;;;5099670;27;20284;-72
2021/05/25 06:28:48;;;;;;;2.35;1.35;;;24.40;86.60;;;;;;5102692;27;20312;-72
2021/05/25 06:31:16;;;;;;;4.80;1.80;;;25.00;83.80;;;;;;5084826;27;20192;-72
2021/05/25 06:33:43;;;;;;;10.68;1.80;;;25.30;84.20;;;;;;5088449;27;20204;-71
2021/05/25 06:36:09;;;;;;;8.52;1.60;;;25.50;85.60;;;;;;5085447;27;20192;-72
2021/05/25 06:38:36;;;;;;;4.72;1.58;;;25.60;87.60;;;;;;5098476;28;20271;-72
2021/05/25 06:41:02;;;;;;;6.10;1.73;;;25.80;88.30;;;;;;5098725;28;20577;-73
2021/05/25 06:43:29;;;;;;;6.03;1.75;;;25.70;90.00;;;;;;5102528;28;20185;-73
2021/05/25 06:45:56;;;;;;;6.03;1.73;;;26.00;88.50;;;;;;5116750;28;20267;-73
2021/05/25 06:48:22;;;;;;;7.68;1.63;;;26.00;87.90;;;;;;5090899;28;20177;-73
2021/05/25 06:50:49;;;;;;;6.15;1.70;;;26.00;88.00;;;;;;5123423;27;20705;-73
2021/05/25 06:53:16;;;;;;;7.97;1.40;;;26.00;86.00;;;;;;5087953;28;20200;-73
2021/05/25 06:55:43;;;;;;;4.60;1.70;;;26.10;84.30;;;;;;5104432;28;20193;-74
2021/05/25 06:58:10;;;;;;;4.47;1.60;;;26.10;84.60;;;;;;5087533;28;20177;-73
2021/05/25 07:00:36;;;;;;;3.88;1.65;;;26.20;83.30;;;;;;5100778;28;20205;-73
2021/05/25 07:03:03;;;;;;;4.55;1.70;;;26.20;84.30;;;;;;5087750;28;20284;-73
2021/05/25 07:05:30;;;;;;;4.90;1.65;;;26.00;82.40;;;;;;5086010;28;20181;-73
2021/05/25 07:07:56;;;;;;;4.85;1.83;;;26.30;81.40;;;;;;5108738;28;20181;-73
2021/05/25 07:10:23;;;;;;;5.88;1.55;;;26.40;81.90;;;;;;5108179;28;20184;-73
2021/05/25 07:12:49;;;;;;;5.15;1.60;;;26.40;81.40;;;;;;5085864;28;20716;-73
2021/05/25 07:15:15;;;;;;;6.55;1.70;;;26.50;81.90;;;;;;5105960;28;20196;-72
2021/05/25 07:17:47;;;;;;;3.60;1.55;;;26.60;83.80;;;;;;5107144;28;20818;-73
2021/05/25 07:20:14;;;;;;;7.20;1.63;;;26.70;84.40;;;;;;5092257;28;20193;-73
2021/05/25 07:22:41;;;;;;;4.70;1.58;;;26.70;85.00;;;;;;5089187;28;20181;-74
2021/05/25 07:25:08;;;;;;;8.20;1.75;;;26.80;83.40;;;;;;5105572;28;20196;-73
2021/05/25 07:27:36;;;;;;;6.22;1.60;;;26.90;83.40;;;;;;5088703;28;20181;-72
2021/05/25 07:30:03;;;;;;;4.50;1.67;;;27.10;83.70;;;;;;5086694;28;20213;-73
2021/05/25 07:32:30;;;;;;;5.43;1.63;;;27.10;85.30;;;;;;5087846;28;20243;-72
2021/05/25 07:34:56;;;;;;;3.95;1.63;;;27.30;85.00;;;;;;5092568;28;20558;-73
2021/05/25 07:37:22;;;;;;;5.75;1.70;;;27.30;85.30;;;;;;5084876;28;20181;-73
2021/05/25 07:39:48;;;;;;;4.57;1.38;;;27.30;86.40;;;;;;5127320;27;20300;-72
2021/05/25 07:42:14;;;;;;;10.45;2.15;;;27.40;86.40;;;;;;5108270;27;20169;-70
2021/05/25 07:44:41;;;;;;;6.18;1.70;;;27.40;84.60;;;;;;5104211;27;20705;-74
2021/05/25 07:47:07;;;;;;;4.03;1.80;;;27.50;84.70;;;;;;5124634;27;20192;-72
2021/05/25 07:49:35;;;;;;;7.68;1.80;;;27.70;85.30;;;;;;5089478;27;20215;-72
2021/05/25 07:52:02;;;;;;;4.22;1.75;;;27.70;85.80;;;;;;5105672;27;20196;-73
2021/05/25 07:54:29;;;;;;;11.45;1.95;;;27.70;86.80;;;;;;5088511;27;20251;-73
2021/05/25 07:56:55;;;;;;;6.35;1.80;;;27.80;86.70;;;;;;5127211;27;20185;-70
2021/05/25 07:59:21;;;;;;;5.28;1.50;;;27.90;87.90;;;;;;5108114;27;20215;-70
2021/05/25 08:01:47;;;;;;;4.72;1.65;;;27.90;86.20;;;;;;5116730;27;20216;-70
2021/05/25 08:04:14;;;;;;;8.23;1.60;;;28.10;87.40;;;;;;5103825;27;20185;-71
2021/05/25 08:06:40;;;;;;;7.88;1.75;;;28.00;87.40;;;;;;5110543;27;20607;-71
2021/05/25 08:09:07;;;;;;;3.10;1.70;;;28.10;87.10;;;;;;5091594;27;20668;-70
2021/05/25 08:11:34;;;;;;;6.22;1.60;;;28.30;87.10;;;;;;5125732;27;20186;-70
2021/05/25 08:14:00;;;;;;;6.68;1.70;;;28.30;86.90;;;;;;5118142;27;20177;-70
2021/05/25 08:16:29;;;;;;;9.82;1.60;;;28.40;87.30;;;;;;5105660;28;20205;-71
2021/05/25 08:21:22;;;;;;;6.40;1.67;;;28.50;88.10;;;;;;5110627;27;20201;-70
2021/05/25 08:23:49;;;;;;;4.78;1.80;;;28.50;88.60;;;;;;5087257;27;20200;-71
2021/05/25 08:26:16;;;;;;;7.28;1.80;;;28.60;89.00;;;;;;5107757;27;21972;-70
2021/05/25 08:28:42;;;;;;;7.50;1.77;;;28.60;88.20;;;;;;5115519;27;20193;-71
2021/05/25 08:31:09;;;;;;;8.75;1.90;;;28.80;87.40;;;;;;5104053;27;20237;-70
2021/05/25 08:33:35;;;;;;;9.85;5.03;;;28.80;87.40;;;;;;5122192;27;20214;-72
2021/05/25 09:01:51;;;;;;;4.93;2.00;;;29.80;78.00;;;;;;5114965;27;20228;-71
2021/05/25 09:04:19;;;;;;;5.63;1.63;;;29.80;77.10;;;;;;5087720;27;20173;-70
2021/05/25 09:09:56;;;;;;;4.93;1.50;;;29.80;75.30;;;;;;5117275;27;20216;-70
2021/05/25 09:12:42;;;;;;;3.60;1.85;;;30.00;74.70;;;;;;5088288;27;20227;-70
2021/05/25 09:15:09;;;;;;;7.13;1.92;;;30.00;73.40;;;;;;5104772;27;20188;-71
2021/05/25 09:17:36;;;;;;;5.85;1.60;;;30.10;74.00;;;;;;5105209;27;20206;-70
2021/05/25 09:20:06;;;;;;;9.60;2.05;;;30.10;73.60;;;;;;5117631;27;20202;-70
2021/05/25 09:22:43;;;;;;;6.47;1.77;;;30.30;72.30;;;;;;5106824;27;20202;-70
2021/05/25 09:25:23;;;;;;;11.30;2.10;;;30.50;72.30;;;;;;5102970;27;20272;-71
2021/05/25 09:28:13;;;;;;;11.45;1.83;;;30.60;70.80;;;;;;5106909;27;20189;-73
2021/05/25 09:30:41;;;;;;;5.90;1.60;;;30.60;70.30;;;;;;5101504;27;20267;-71
2021/05/25 09:33:10;;;;;;;5.97;1.67;;;30.80;70.80;;;;;;5086017;27;20188;-72
2021/05/25 09:35:40;;;;;;;8.65;1.90;;;31.00;68.50;;;;;;5120938;27;20241;-73
2021/05/25 09:38:13;;;;;;;5.75;1.90;;;31.00;69.00;;;;;;5103921;27;20184;-72
2021/05/25 09:40:43;;;;;;;6.93;1.83;;;31.10;68.20;;;;;;5104785;27;20296;-73
2021/05/25 09:43:26;;;;;;;7.53;1.70;;;31.10;68.20;;;;;;5098661;27;20193;-73
2021/05/25 09:45:55;;;;;;;5.38;1.83;;;31.10;68.30;;;;;;5082943;27;20511;-72
2021/05/25 09:48:31;;;;;;;3.65;1.63;;;31.00;68.00;;;;;;5105368;27;20205;-70
2021/05/25 09:51:01;;;;;;;8.40;1.70;;;31.00;67.50;;;;;;5102847;27;20237;-70
2021/05/25 09:53:30;;;;;;;4.90;2.05;;;31.10;67.70;;;;;;5086196;27;20250;-72
2021/05/25 09:56:04;;;;;;;9.70;1.80;;;31.20;67.90;;;;;;5101699;27;20188;-72
2021/05/25 09:58:33;;;;;;;12.60;2.00;;;31.30;66.30;;;;;;5091692;27;20187;-72
2021/05/25 10:01:09;;;;;;;3.53;1.73;;;31.40;66.00;;;;;;5087420;27;20333;-72
2021/05/25 10:03:49;;;;;;;5.88;1.92;;;31.40;66.00;;;;;;5101426;28;20961;-72
2021/05/25 10:06:18;;;;;;;4.88;2.00;;;31.50;66.60;;;;;;5117797;27;20204;-72
2021/05/25 10:08:46;;;;;;;6.30;1.63;;;31.70;65.00;;;;;;5104361;27;20189;-70
2021/05/25 10:11:20;;;;;;;7.35;1.85;;;31.80;65.00;;;;;;5123256;27;20700;-71
2021/05/25 10:13:46;;;;;;;13.40;2.03;;;31.80;65.00;;;;;;5119333;27;20279;-70
2021/05/25 10:16:15;;;;;;;8.82;1.80;;;31.80;64.40;;;;;;5088035;27;20198;-72
2021/05/25 10:21:14;;;;;;;4.03;1.45;;;32.10;64.40;;;;;;5110028;27;20215;-72
2021/05/25 10:23:43;;;;;;;4.68;1.65;;;32.00;64.70;;;;;;5118182;27;20193;-72
2021/05/25 10:26:20;;;;;;;5.78;1.80;;;32.10;64.50;;;;;;5088587;28;20185;-69
2021/05/25 10:28:50;;;;;;;9.93;2.42;;;32.10;62.80;;;;;;5103137;27;20197;-73
2021/05/25 10:31:40;;;;;;;3.03;1.55;;;32.30;63.10;;;;;;5099697;27;20195;-70
2021/05/25 10:34:30;;;;;;;5.82;1.75;;;32.20;62.90;;;;;;5100530;28;20644;-72
2021/05/25 10:36:59;;;;;;;7.00;2.33;;;32.20;62.40;;;;;;5124835;27;20189;-71
2021/05/25 10:39:40;;;;;;;5.80;1.70;;;32.10;62.70;;;;;;5086550;27;20541;-72
2021/05/25 10:42:19;;;;;;;9.35;1.95;;;32.20;62.20;;;;;;5102613;28;20219;-73
2021/05/25 10:44:55;;;;;;;13.63;1.98;;;32.30;61.60;;;;;;5086216;27;20641;-73
2021/05/25 10:47:36;;;;;;;4.68;1.88;;;32.30;61.80;;;;;;5103525;28;20184;-72
2021/05/25 10:50:47;;;;;;;7.03;1.70;;;32.20;62.50;;;;;;5098764;28;20180;-72
2021/05/25 10:53:26;;;;;;;6.88;1.88;;;32.40;62.10;;;;;;5069930;28;20211;-70
2021/05/25 10:55:55;;;;;;;4.45;1.45;;;32.40;60.60;;;;;;5104659;28;20196;-73
2021/05/25 10:58:29;;;;;;;4.07;2.15;;;32.30;60.60;;;;;;5086669;28;20187;-71
2021/05/25 11:00:58;;;;;;;7.00;1.58;;;32.20;60.70;;;;;;5098404;28;20235;-73
2021/05/25 11:03:25;;;;;;;4.95;1.55;;;32.10;59.70;;;;;;5097913;28;20281;-71
2021/05/25 11:06:06;;;;;;;6.55;1.70;;;32.00;59.70;;;;;;5081435;27;22220;-74
2021/05/25 11:08:40;;;;;;;4.57;1.85;;;32.00;60.60;;;;;;5119870;27;20296;-71
2021/05/25 11:11:14;;;;;;;4.65;2.00;;;32.10;58.90;;;;;;5105077;27;20219;-71
2021/05/25 11:13:51;;;;;;;3.55;1.73;;;32.20;60.30;;;;;;5102656;27;20586;-73
2021/05/25 11:16:29;;;;;;;4.05;1.80;;;32.30;58.60;;;;;;5102989;27;20192;-73
2021/05/25 11:19:31;;;;;;;4.20;1.70;;;32.30;58.40;;;;;;5090973;27;20601;-73
2021/05/25 11:22:07;;;;;;;8.73;1.65;;;32.30;59.40;;;;;;5085809;27;20250;-73
2021/05/25 11:24:59;;;;;;;10.10;1.80;;;32.50;58.80;;;;;;5092469;27;20188;-73
2021/05/25 11:27:43;;;;;;;6.60;2.15;;;32.40;59.10;;;;;;5106250;27;20186;-74
2021/05/25 11:30:28;;;;;;;4.88;1.75;;;32.30;59.40;;;;;;5111482;27;20193;-73
2021/05/25 11:33:00;;;;;;;7.75;2.13;;;32.30;58.50;;;;;;5106603;27;20200;-74
2021/05/25 11:35:30;;;;;;;3.72;1.70;;;31.80;60.50;;;;;;5123183;27;20188;-73
2021/05/25 11:38:03;;;;;;;10.30;1.88;;;32.00;61.70;;;;;;5113153;27;20189;-73
2021/05/25 11:40:37;;;;;;;4.85;2.00;;;31.80;61.20;;;;;;5090178;27;20665;-72
2021/05/25 11:43:04;;;;;;;6.28;1.55;;;32.30;59.30;;;;;;5101955;27;20204;-73
2021/05/25 11:45:31;;;;;;;9.40;1.90;;;32.30;59.70;;;;;;5124418;27;20173;-73
2021/05/25 11:48:02;;;;;;;9.73;2.00;;;32.30;59.40;;;;;;5107129;27;20268;-73
2021/05/25 11:50:41;;;;;;;5.68;1.98;;;32.30;59.80;;;;;;5092074;27;20189;-73
2021/05/25 11:53:11;;;;;;;4.80;1.83;;;32.40;59.80;;;;;;5084897;27;20182;-73
2021/05/25 11:55:42;;;;;;;4.10;1.60;;;32.20;59.90;;;;;;5086146;27;20182;-73
2021/05/25 11:58:09;;;;;;;3.38;1.80;;;32.30;60.70;;;;;;5092763;27;20181;-71
2021/05/25 12:00:36;;;;;;;9.27;1.90;;;31.50;59.70;;;;;;5088516;27;21233;-73
2021/05/25 12:03:10;;;;;;;4.82;1.52;;;31.50;61.10;;;;;;5092193;27;20184;-72
2021/05/25 12:05:37;;;;;;;6.35;2.03;;;32.20;59.00;;;;;;5109079;27;20185;-72
2021/05/25 12:08:10;;;;;;;6.03;1.73;;;32.30;58.60;;;;;;5091641;27;20184;-72
2021/05/25 12:10:42;;;;;;;4.28;1.70;;;32.50;57.50;;;;;;5117975;27;20211;-72
2021/05/25 12:13:20;;;;;;;5.22;1.63;;;32.50;57.60;;;;;;5091806;27;20759;-72
2021/05/25 12:15:49;;;;;;;5.47;1.80;;;32.50;58.00;;;;;;5092789;27;20584;-71
2021/05/25 12:18:37;;;;;;;5.82;1.80;;;32.10;59.70;;;;;;5089163;27;20185;-73
2021/05/25 12:21:05;;;;;;;6.93;1.85;;;32.30;60.50;;;;;;5104705;27;20240;-72
2021/05/25 12:23:32;;;;;;;4.60;1.80;;;32.50;57.50;;;;;;5099514;28;20174;-72
2021/05/25 12:26:02;;;;;;;8.27;1.48;;;32.20;59.30;;;;;;5103353;27;20187;-70
2021/05/25 12:28:34;;;;;;;5.53;1.60;;;32.40;59.10;;;;;;5108939;27;20186;-73
2021/05/25 12:31:03;;;;;;;8.05;2.03;;;32.30;58.00;;;;;;5107539;27;20995;-72
2021/05/25 12:33:36;;;;;;;4.28;1.60;;;32.30;58.80;;;;;;5101419;27;20189;-72
2021/05/25 12:36:46;;;;;;;5.75;1.67;;;32.30;58.40;;;;;;5086563;27;20222;-73
2021/05/25 12:39:30;;;;;;;4.78;1.48;;;32.20;58.90;;;;;;5090352;27;20204;-72
2021/05/25 12:41:57;;;;;;;4.30;1.75;;;32.30;57.50;;;;;;5090218;27;20212;-72
2021/05/25 12:44:34;;;;;;;9.15;1.88;;;32.20;58.10;;;;;;5121941;27;20313;-73
2021/05/25 12:47:06;;;;;;;4.50;1.55;;;32.10;59.40;;;;;;5102947;27;20241;-73
2021/05/25 12:49:40;;;;;;;6.97;1.85;;;32.30;58.90;;;;;;5125433;27;20556;-71
2021/05/25 12:52:32;;;;;;;6.35;1.98;;;32.10;59.60;;;;;;5102937;27;20521;-73
2021/05/25 12:55:12;;;;;;;8.75;2.10;;;32.10;60.20;;;;;;5105629;27;20185;-69
2021/05/25 12:57:50;;;;;;;8.38;2.03;;;32.00;59.80;;;;;;5106097;27;20310;-69
2021/05/25 13:00:29;;;;;;;5.10;1.60;;;32.10;61.30;;;;;;5105182;27;20232;-70
2021/05/25 13:02:58;;;;;;;5.78;1.63;;;32.00;60.70;;;;;;5100989;27;20185;-72
2021/05/25 13:05:32;;;;;;;5.63;1.50;;;31.80;62.80;;;;;;5121270;27;20181;-71
2021/05/25 13:08:10;;;;;;;7.07;1.60;;;31.80;62.90;;;;;;5104253;27;20238;-73
2021/05/25 13:11:05;;;;;;;7.22;1.90;;;31.70;62.30;;;;;;5102181;27;20664;-73
2021/05/25 13:13:48;;;;;;;12.45;1.70;;;31.80;62.60;;;;;;5107214;27;20200;-73
2021/05/25 13:16:33;;;;;;;7.30;1.85;;;31.80;65.60;;;;;;5104796;27;20229;-70
2021/05/25 13:18:59;;;;;;;11.00;2.15;;;31.70;65.60;;;;;;5119384;27;20577;-70
2021/05/25 13:21:28;;;;;;;7.65;1.73;;;31.60;65.40;;;;;;5122081;27;20265;-72
2021/05/25 13:24:03;;;;;;;5.68;1.42;;;31.60;66.20;;;;;;5092437;27;20884;-70
2021/05/25 13:26:41;;;;;;;6.57;1.98;;;31.50;66.80;;;;;;5108246;27;20176;-73
2021/05/25 13:29:16;;;;;;;6.70;2.03;;;31.60;65.40;;;;;;5106451;27;20177;-70
2021/05/25 13:31:43;;;;;;;11.18;1.88;;;31.60;62.30;;;;;;5104890;27;20279;-71
2021/05/25 13:34:17;;;;;;;5.80;1.75;;;31.60;62.30;;;;;;5125894;27;20183;-70
2021/05/25 13:36:46;;;;;;;4.93;1.73;;;31.60;62.30;;;;;;5100509;27;20192;-73
2021/05/25 13:39:15;;;;;;;16.33;1.75;;;31.50;62.80;;;;;;5119676;27;20189;-71
2021/05/25 13:41:44;;;;;;;10.30;1.50;;;31.50;62.70;;;;;;5116691;27;20241;-73